createdAt,value
2022-10-21T00:01:26.874Z,4.35
2022-10-21T00:03:53.989Z,4.33
2022-10-21T00:06:20.998Z,4.30
2022-10-21T00:08:48.137Z,4.27
2022-10-21T00:11:15.232Z,4.24
2022-10-21T00:13:42.708Z,4.22
2022-10-21T00:16:13.588Z,4.20
2022-10-21T00:18:42.268Z,4.20
2022-10-21T00:21:11.007Z,4.19
2022-10-21T00:23:38.408Z,4.16
2022-10-21T00:26:05.450Z,4.14
2022-10-21T00:28:32.882Z,4.13
2022-10-21T00:31:00.171Z,4.11
2022-10-21T00:33:29.238Z,4.09
2022-10-21T00:35:57.678Z,4.05
2022-10-21T00:38:25.145Z,4.02
2022-10-21T00:40:52.389Z,4.00
2022-10-21T00:43:19.437Z,4.00
2022-10-21T00:45:48.631Z,4.00
2022-10-21T00:48:22.080Z,4.00
2022-10-21T00:50:56.010Z,3.99
2022-10-21T00:53:24.136Z,3.97
2022-10-21T00:55:56.669Z,3.94
2022-10-21T00:58:27.552Z,3.91
2022-10-21T01:00:59.227Z,3.86
2022-10-21T01:03:27.855Z,3.82
2022-10-21T01:05:57.788Z,3.79
2022-10-21T01:08:25.876Z,3.77
2022-10-21T01:10:53.376Z,3.73
2022-10-21T01:13:27.251Z,3.72
2022-10-21T01:16:03.531Z,3.67
2022-10-21T01:18:37.978Z,3.63
2022-10-21T01:21:31.372Z,3.61
2022-10-21T01:24:34.427Z,3.59
2022-10-21T01:27:14.402Z,3.56
2022-10-21T01:30:06.254Z,3.52
2022-10-21T01:32:47.537Z,3.46
2022-10-21T01:35:20.786Z,3.39
2022-10-21T01:37:57.332Z,3.32
2022-10-21T01:40:28.126Z,3.26
2022-10-21T01:42:58.022Z,3.21
2022-10-21T01:45:32.859Z,3.17
2022-10-21T01:48:04.013Z,3.13
2022-10-21T01:50:35.298Z,3.09
2022-10-21T01:53:06.483Z,3.08
2022-10-21T01:55:34.399Z,3.08
2022-10-21T01:58:04.084Z,3.07
2022-10-21T02:00:32.634Z,3.06
2022-10-21T02:03:02.006Z,3.03
2022-10-21T02:05:33.345Z,2.97
2022-10-21T02:08:00.669Z,2.93
2022-10-21T02:10:31.325Z,2.89
2022-10-21T02:13:01.737Z,2.85
2022-10-21T02:15:30.260Z,2.82
2022-10-21T02:18:04.502Z,2.80
2022-10-21T02:20:36.200Z,2.79
2022-10-21T02:23:04.149Z,2.79
2022-10-21T02:25:37.336Z,2.80
2022-10-21T02:28:05.544Z,2.80
2022-10-21T02:30:53.099Z,2.79
2022-10-21T02:33:28.233Z,2.79
2022-10-21T02:36:05.166Z,2.76
2022-10-21T02:38:34.035Z,2.76
2022-10-21T02:41:05.985Z,2.75
2022-10-21T02:43:36.767Z,2.76
2022-10-21T02:46:08.523Z,2.77
2022-10-21T02:48:38.316Z,2.79
2022-10-21T02:51:06.569Z,2.80
2022-10-21T02:53:33.889Z,2.81
2022-10-21T02:56:01.754Z,2.81
2022-10-21T02:58:29.377Z,2.81
2022-10-21T03:00:56.918Z,2.81
2022-10-21T03:03:24.270Z,2.77
2022-10-21T03:05:51.804Z,2.76
2022-10-21T03:08:19.334Z,2.75
2022-10-21T03:10:52.933Z,2.74
2022-10-21T03:13:20.715Z,2.75
2022-10-21T03:15:47.808Z,2.75
2022-10-21T03:18:14.863Z,2.76
2022-10-21T03:20:42.213Z,2.75
2022-10-21T03:23:09.307Z,2.73
2022-10-21T03:25:36.435Z,2.71
2022-10-21T03:28:03.909Z,2.68
2022-10-21T03:30:30.918Z,2.68
2022-10-21T03:32:57.999Z,2.66
2022-10-21T03:35:25.351Z,2.64
2022-10-21T03:37:52.439Z,2.61
2022-10-21T03:40:19.920Z,2.60
2022-10-21T03:42:46.914Z,2.58
2022-10-21T03:45:14.364Z,2.54
2022-10-21T03:47:41.402Z,2.52
2022-10-21T03:50:13.899Z,2.52
2022-10-21T03:52:43.604Z,2.51
2022-10-21T03:55:11.366Z,2.50
2022-10-21T03:57:38.951Z,2.49
2022-10-21T04:00:08.589Z,2.49
2022-10-21T04:02:39.987Z,2.47
2022-10-21T04:05:08.578Z,2.46
2022-10-21T04:07:35.681Z,2.45
2022-10-21T04:10:02.736Z,2.42
2022-10-21T04:12:29.796Z,2.41
2022-10-21T04:14:57.005Z,2.40
2022-10-21T04:17:24.022Z,2.38
2022-10-21T04:19:50.943Z,2.35
2022-10-21T04:22:18.143Z,2.33
2022-10-21T04:24:45.239Z,2.30
2022-10-21T04:27:12.638Z,2.28
2022-10-21T04:29:40.080Z,2.25
2022-10-21T04:32:07.289Z,2.22
2022-10-21T04:34:34.293Z,2.20
2022-10-21T04:37:05.071Z,2.19
2022-10-21T04:39:32.998Z,2.17
2022-10-21T04:42:00.327Z,2.16
2022-10-21T04:44:28.157Z,2.14
2022-10-21T04:46:55.385Z,2.11
2022-10-21T04:49:22.694Z,2.10
2022-10-21T04:51:49.849Z,2.09
2022-10-21T04:54:16.933Z,2.08
2022-10-21T04:56:44.081Z,2.08
2022-10-21T04:59:11.421Z,2.08
2022-10-21T05:01:38.683Z,2.09
2022-10-21T05:04:05.775Z,2.09
2022-10-21T05:06:33.118Z,2.09
2022-10-21T05:09:00.558Z,2.11
2022-10-21T05:11:27.658Z,2.13
2022-10-21T05:13:54.817Z,2.15
2022-10-21T05:16:23.972Z,2.17
2022-10-21T05:18:51.576Z,2.18
2022-10-21T05:21:18.602Z,2.18
2022-10-21T05:23:45.658Z,2.18
2022-10-21T05:26:12.764Z,2.17
2022-10-21T05:28:40.027Z,2.21
2022-10-21T05:31:07.182Z,2.28
2022-10-21T05:33:34.422Z,2.32
2022-10-21T05:36:05.123Z,2.36
2022-10-21T05:38:32.504Z,2.43
2022-10-21T05:41:00.514Z,2.51
2022-10-21T05:43:28.387Z,2.64
2022-10-21T05:45:55.894Z,2.76
2022-10-21T05:48:23.136Z,2.91
2022-10-21T05:50:52.803Z,3.07
2022-10-21T05:53:20.052Z,3.23
2022-10-21T05:55:47.552Z,3.42
2022-10-21T05:58:14.629Z,3.48
2022-10-21T06:00:42.113Z,3.37
2022-10-21T06:03:09.801Z,3.26
2022-10-21T06:05:38.268Z,3.18
2022-10-21T06:08:05.644Z,3.15
2022-10-21T06:10:32.623Z,3.11
2022-10-21T06:13:00.310Z,3.05
2022-10-21T06:15:27.353Z,3.01
2022-10-21T06:17:55.501Z,3.00
2022-10-21T06:20:22.862Z,2.98
2022-10-21T06:22:49.893Z,2.95
2022-10-21T06:27:49.682Z,2.94
2022-10-21T06:30:16.875Z,2.95
2022-10-21T06:32:43.971Z,2.98
2022-10-21T06:35:11.469Z,3.01
2022-10-21T06:37:38.908Z,3.06
2022-10-21T06:40:07.633Z,3.09
2022-10-21T06:42:34.724Z,3.16
2022-10-21T06:45:01.786Z,3.38
2022-10-21T06:47:28.884Z,3.66
2022-10-21T06:49:55.969Z,3.95
2022-10-21T06:52:23.163Z,4.23
2022-10-21T06:54:51.249Z,4.67
2022-10-21T06:57:18.249Z,4.90
2022-10-21T06:59:45.281Z,5.13
2022-10-21T07:02:13.229Z,5.26
2022-10-21T07:04:56.524Z,5.54
2022-10-21T07:07:23.851Z,5.79
2022-10-21T07:09:51.070Z,5.95
2022-10-21T07:12:18.244Z,5.91
2022-10-21T07:14:45.520Z,5.88
2022-10-21T07:17:29.763Z,5.96
2022-10-21T07:19:57.357Z,6.01
2022-10-21T07:22:24.453Z,6.03
2022-10-21T07:24:51.723Z,6.20
2022-10-21T07:27:18.916Z,6.40
2022-10-21T07:29:46.189Z,6.59
2022-10-21T07:32:13.290Z,6.85
2022-10-21T07:34:40.416Z,6.99
2022-10-21T07:37:07.548Z,7.01
2022-10-21T07:39:35.227Z,7.04
2022-10-21T07:42:02.413Z,7.02
2022-10-21T07:44:29.638Z,6.92
2022-10-21T07:46:57.092Z,6.69
2022-10-21T07:49:25.459Z,6.40
2022-10-21T07:51:53.957Z,6.12
2022-10-21T07:54:21.619Z,5.96
2022-10-21T07:56:51.527Z,5.94
2022-10-21T07:59:20.247Z,5.98
2022-10-21T08:04:22.561Z,5.98
2022-10-21T08:06:50.875Z,5.95
2022-10-21T08:09:18.845Z,5.83
2022-10-21T08:11:46.000Z,5.70
2022-10-21T08:14:13.857Z,5.57
2022-10-21T08:16:41.315Z,5.39
2022-10-21T08:19:09.185Z,5.29
2022-10-21T08:21:37.523Z,5.28
2022-10-21T08:24:06.243Z,5.39
2022-10-21T08:26:33.867Z,5.62
2022-10-21T08:29:01.143Z,5.80
2022-10-21T08:31:28.160Z,5.83
2022-10-21T08:33:55.481Z,5.86
2022-10-21T08:36:25.089Z,5.88
2022-10-21T08:38:53.190Z,5.91
2022-10-21T08:41:37.384Z,6.04
2022-10-21T08:44:08.549Z,6.19
2022-10-21T08:46:41.133Z,6.32
2022-10-21T08:49:14.688Z,6.43
2022-10-21T08:51:47.478Z,6.50
2022-10-21T08:54:23.476Z,6.48
2022-10-21T08:56:56.499Z,6.43
2022-10-21T08:59:25.366Z,6.40
2022-10-21T09:02:02.582Z,6.36
2022-10-21T09:04:38.156Z,6.34
2022-10-21T09:07:13.313Z,6.30
2022-10-21T09:09:47.317Z,6.21
2022-10-21T09:12:21.537Z,6.20
2022-10-21T09:15:11.225Z,6.35
2022-10-21T09:17:57.698Z,6.74
2022-10-21T09:20:39.200Z,7.24
2022-10-21T09:23:30.172Z,7.69
2022-10-21T09:26:01.666Z,8.06
2022-10-21T09:28:30.264Z,8.27
2022-10-21T09:30:58.955Z,8.38
2022-10-21T09:33:29.969Z,8.54
2022-10-21T09:36:04.809Z,8.82
2022-10-21T09:38:41.280Z,9.12
2022-10-21T09:41:15.749Z,9.27
2022-10-21T09:43:42.902Z,9.37
2022-10-21T09:46:14.507Z,9.41
2022-10-21T09:49:16.219Z,9.32
2022-10-21T09:51:40.260Z,9.22
2022-10-21T09:54:12.816Z,9.31
2022-10-21T09:56:45.049Z,9.40
2022-10-21T09:59:14.289Z,9.46
2022-10-21T10:01:44.743Z,9.51
2022-10-21T10:04:23.292Z,9.58
2022-10-21T10:06:50.879Z,9.63
2022-10-21T10:09:27.132Z,9.59
2022-10-21T10:11:57.509Z,9.50
2022-10-21T10:14:31.217Z,9.52
2022-10-21T10:16:59.714Z,9.59
2022-10-21T10:19:28.836Z,9.71
2022-10-21T10:22:15.264Z,9.85
2022-10-21T10:24:43.656Z,10.02
2022-10-21T10:27:19.212Z,10.20
2022-10-21T10:29:53.851Z,10.42
2022-10-21T10:32:24.261Z,10.60
2022-10-21T10:34:58.835Z,10.77
2022-10-21T10:37:29.155Z,10.81
2022-10-21T10:39:59.235Z,10.78
2022-10-21T10:42:29.354Z,10.79
2022-10-21T10:45:00.478Z,10.84
2022-10-21T10:47:32.871Z,10.98
2022-10-21T10:50:00.139Z,11.17
2022-10-21T10:52:27.879Z,11.38
2022-10-21T10:55:19.199Z,11.45
2022-10-21T10:58:05.913Z,11.51
2022-10-21T11:00:44.157Z,11.62
2022-10-21T11:03:15.970Z,11.66
2022-10-21T11:05:46.202Z,11.65
2022-10-21T11:08:19.337Z,11.68
2022-10-21T11:10:50.161Z,11.83
2022-10-21T11:13:19.376Z,11.89
2022-10-21T11:16:11.549Z,11.81
2022-10-21T11:18:49.359Z,11.70
2022-10-21T11:21:34.222Z,11.56
2022-10-21T11:24:29.946Z,11.43
2022-10-21T11:27:04.490Z,11.33
2022-10-21T11:29:47.658Z,11.37
2022-10-21T11:32:27.763Z,11.56
2022-10-21T11:35:07.052Z,11.84
2022-10-21T11:37:49.289Z,12.04
2022-10-21T11:40:27.697Z,12.12
2022-10-21T11:42:57.762Z,12.10
2022-10-21T11:45:39.171Z,12.00
2022-10-21T11:48:18.353Z,11.84
2022-10-21T11:50:54.686Z,11.75
2022-10-21T11:53:37.800Z,11.67
2022-10-21T11:56:16.391Z,11.53
2022-10-21T11:58:56.867Z,11.33
2022-10-21T12:01:38.626Z,11.15
2022-10-21T12:04:24.534Z,10.98
2022-10-21T12:06:59.611Z,10.77
2022-10-21T12:09:32.021Z,10.59
2022-10-21T12:12:05.901Z,10.47
2022-10-21T12:14:38.019Z,10.33
2022-10-21T12:17:11.837Z,10.19
2022-10-21T12:19:39.575Z,10.09
2022-10-21T12:22:08.708Z,10.00
2022-10-21T12:24:47.698Z,9.97
2022-10-21T12:27:26.714Z,9.95
2022-10-21T12:30:07.009Z,9.92
2022-10-21T12:32:41.979Z,9.86
2022-10-21T12:35:16.111Z,9.80
2022-10-21T12:38:04.573Z,9.74
2022-10-21T12:40:43.786Z,9.71
2022-10-21T12:43:22.559Z,9.66
2022-10-21T12:46:02.399Z,9.63
2022-10-21T12:48:36.793Z,9.57
2022-10-21T12:51:06.934Z,9.51
2022-10-21T12:53:40.035Z,9.48
2022-10-21T12:56:08.831Z,9.45
2022-10-21T12:58:41.427Z,9.41
2022-10-21T13:01:25.817Z,9.31
2022-10-21T13:03:57.789Z,9.25
2022-10-21T13:06:58.133Z,9.20
2022-10-21T13:09:37.475Z,9.14
2022-10-21T13:12:18.683Z,9.10
2022-10-21T13:14:49.368Z,9.09
2022-10-21T13:17:50.232Z,9.12
2022-10-21T13:20:47.564Z,9.15
2022-10-21T13:23:32.541Z,9.18
2022-10-21T13:26:13.948Z,9.21
2022-10-21T13:28:41.266Z,9.24
2022-10-21T13:31:08.876Z,9.25
2022-10-21T13:33:38.619Z,9.26
2022-10-21T13:36:10.297Z,9.25
2022-10-21T13:38:39.405Z,9.24
2022-10-21T13:41:19.791Z,9.23
2022-10-21T13:43:52.752Z,9.23
2022-10-21T13:46:24.503Z,9.23
2022-10-21T13:48:52.185Z,9.22
2022-10-21T13:51:22.722Z,9.22
2022-10-21T13:53:54.183Z,9.20
2022-10-21T13:56:26.399Z,9.18
2022-10-21T13:58:54.099Z,9.18
2022-10-21T14:01:25.623Z,9.17
2022-10-21T14:03:53.774Z,9.14
2022-10-21T14:06:30.964Z,9.12
2022-10-21T14:08:58.864Z,9.12
2022-10-21T14:11:34.797Z,9.14
2022-10-21T14:14:09.829Z,9.16
2022-10-21T14:16:40.695Z,9.17
2022-10-21T14:19:12.415Z,9.19
2022-10-21T14:21:43.902Z,9.21
2022-10-21T14:24:26.120Z,9.23
2022-10-21T14:26:53.941Z,9.23
2022-10-21T14:29:21.709Z,9.24
2022-10-21T14:31:48.996Z,9.23
2022-10-21T14:34:24.878Z,9.22
2022-10-21T14:37:19.622Z,9.21
2022-10-21T14:39:46.837Z,9.20
2022-10-21T14:42:20.739Z,9.19
2022-10-21T14:44:49.886Z,9.19
2022-10-21T14:47:23.480Z,9.21
2022-10-21T14:49:52.843Z,9.24
2022-10-21T14:52:24.378Z,9.27
2022-10-21T14:54:56.028Z,9.29
2022-10-21T14:57:34.198Z,9.30
2022-10-21T15:00:15.632Z,9.30
2022-10-21T15:02:43.065Z,9.29
2022-10-21T15:05:31.781Z,9.28
2022-10-21T15:08:25.991Z,9.27
2022-10-21T15:11:25.644Z,9.25
2022-10-21T15:14:32.118Z,9.22
2022-10-21T15:17:01.463Z,9.18
2022-10-21T15:19:33.193Z,9.16
2022-10-21T15:22:02.715Z,9.15
2022-10-21T15:24:37.351Z,9.15
2022-10-21T15:27:05.924Z,9.16
2022-10-21T15:29:43.579Z,9.15
2022-10-21T15:32:13.759Z,9.14
2022-10-21T15:34:40.876Z,9.13
2022-10-21T15:37:08.533Z,9.12
2022-10-21T15:39:35.775Z,9.09
2022-10-21T15:42:03.619Z,9.06
2022-10-21T15:44:32.539Z,9.02
2022-10-21T15:47:02.797Z,9.00
2022-10-21T15:49:32.826Z,8.98
2022-10-21T15:51:59.996Z,8.97
2022-10-21T15:54:27.109Z,8.96
2022-10-21T15:56:55.681Z,8.94
2022-10-21T15:59:24.610Z,8.93
2022-10-21T16:01:52.611Z,8.91
2022-10-21T16:04:20.284Z,8.89
2022-10-21T16:06:49.089Z,8.86
2022-10-21T16:09:20.513Z,8.82
2022-10-21T16:11:59.059Z,8.79
2022-10-21T16:14:29.529Z,8.74
2022-10-21T16:17:01.042Z,8.74
2022-10-21T16:19:28.863Z,8.75
2022-10-21T16:21:56.404Z,8.78
2022-10-21T16:24:23.634Z,8.78
2022-10-21T16:26:51.953Z,8.79
2022-10-21T16:29:21.731Z,8.77
2022-10-21T16:31:49.045Z,8.75
2022-10-21T16:34:16.269Z,8.73
2022-10-21T16:36:43.465Z,8.70
2022-10-21T16:39:14.701Z,8.67
2022-10-21T16:41:42.302Z,8.64
2022-10-21T16:44:09.702Z,8.62
2022-10-21T16:46:40.072Z,8.60
2022-10-21T16:49:13.054Z,8.60
2022-10-21T16:51:40.635Z,8.59
2022-10-21T16:54:07.991Z,8.58
2022-10-21T16:56:35.115Z,8.55
2022-10-21T16:59:02.131Z,8.53
2022-10-21T17:01:29.650Z,8.51
2022-10-21T17:03:56.885Z,8.47
2022-10-21T17:06:26.301Z,8.46
2022-10-21T17:08:54.946Z,8.45
2022-10-21T17:11:23.838Z,8.44
2022-10-21T17:13:51.623Z,8.43
2022-10-21T17:16:20.272Z,8.43
2022-10-21T17:18:47.823Z,8.46
2022-10-21T17:21:21.714Z,8.49
2022-10-21T17:23:50.099Z,8.50
2022-10-21T17:26:18.407Z,8.50
2022-10-21T17:28:45.508Z,8.48
2022-10-21T17:31:17.437Z,8.47
2022-10-21T17:33:44.728Z,8.45
2022-10-21T17:36:12.770Z,8.42
2022-10-21T17:38:41.957Z,8.39
2022-10-21T17:41:10.012Z,8.38
2022-10-21T17:43:37.236Z,8.36
2022-10-21T17:46:04.470Z,8.35
2022-10-21T17:48:31.573Z,8.35
2022-10-21T17:51:00.932Z,8.34
2022-10-21T17:53:29.022Z,8.33
2022-10-21T17:56:03.702Z,8.30
2022-10-21T17:58:31.675Z,8.28
2022-10-21T18:00:59.436Z,8.24
2022-10-21T18:03:27.263Z,8.22
2022-10-21T18:05:55.761Z,8.20
2022-10-21T18:08:23.238Z,8.18
2022-10-21T18:10:56.613Z,8.17
2022-10-21T18:13:23.774Z,8.15
2022-10-21T18:15:51.556Z,8.14
2022-10-21T18:18:18.961Z,8.14
2022-10-21T18:20:46.015Z,8.12
2022-10-21T18:23:13.648Z,8.12
2022-10-21T18:25:41.542Z,8.11
2022-10-21T18:28:11.342Z,8.10
2022-10-21T18:30:44.042Z,8.10
2022-10-21T18:33:11.415Z,8.09
2022-10-21T18:35:38.676Z,8.07
2022-10-21T18:38:06.072Z,8.06
2022-10-21T18:40:33.643Z,8.04
2022-10-21T18:43:00.662Z,8.05
2022-10-21T18:45:27.770Z,8.04
2022-10-21T18:47:55.691Z,8.05
2022-10-21T18:50:22.682Z,8.07
2022-10-21T18:52:49.767Z,8.08
2022-10-21T18:55:17.041Z,8.08
2022-10-21T18:57:44.133Z,8.07
2022-10-21T19:00:13.366Z,8.07
2022-10-21T19:02:40.480Z,8.06
2022-10-21T19:05:08.710Z,8.05
2022-10-21T19:07:35.902Z,8.04
2022-10-21T19:10:03.325Z,8.04
2022-10-21T19:12:30.364Z,8.05
2022-10-21T19:14:58.137Z,8.06
2022-10-21T19:17:25.451Z,8.08
2022-10-21T19:19:52.679Z,8.11
2022-10-21T19:22:20.197Z,8.12
2022-10-21T19:24:47.899Z,8.13
2022-10-21T19:27:14.930Z,8.13
2022-10-21T19:29:43.581Z,8.14
2022-10-21T19:32:12.969Z,8.12
2022-10-21T19:34:40.185Z,8.12
2022-10-21T19:37:09.697Z,8.12
2022-10-21T19:39:36.798Z,8.13
2022-10-21T19:42:04.576Z,8.13
2022-10-21T19:44:31.668Z,8.13
2022-10-21T19:46:58.629Z,8.14
2022-10-21T19:49:25.776Z,8.15
2022-10-21T19:51:53.487Z,8.16
2022-10-21T19:54:20.641Z,8.17
2022-10-21T19:56:47.765Z,8.18
2022-10-21T19:59:14.881Z,8.20
2022-10-21T20:01:42.630Z,8.22
2022-10-21T20:04:09.839Z,8.21
2022-10-21T20:06:38.320Z,8.24
2022-10-21T20:09:08.313Z,8.24
2022-10-21T20:11:35.574Z,8.23
2022-10-21T20:14:04.328Z,8.23
2022-10-21T20:16:33.304Z,8.23
2022-10-21T20:19:01.149Z,8.24
2022-10-21T20:21:28.900Z,8.25
2022-10-21T20:23:57.924Z,8.27
2022-10-21T20:26:25.102Z,8.28
2022-10-21T20:28:52.493Z,8.30
2022-10-21T20:31:20.078Z,8.31
2022-10-21T20:33:48.794Z,8.33
2022-10-21T20:36:18.380Z,8.35
2022-10-21T20:38:45.788Z,8.35
2022-10-21T20:41:21.649Z,8.37
2022-10-21T20:43:49.243Z,8.38
2022-10-21T20:46:17.575Z,8.36
2022-10-21T20:48:46.783Z,8.34
2022-10-21T20:51:15.629Z,8.33
2022-10-21T20:56:15.898Z,8.26
2022-10-21T20:58:44.147Z,8.22
2022-10-21T21:01:12.561Z,8.17
2022-10-21T21:03:41.908Z,8.14
2022-10-21T21:06:10.069Z,8.10
2022-10-21T21:08:44.572Z,8.06
2022-10-21T21:11:17.213Z,8.03
2022-10-21T21:13:44.963Z,8.01
2022-10-21T21:16:13.851Z,7.98
2022-10-21T21:18:42.759Z,7.96
2022-10-21T21:21:12.500Z,7.95
2022-10-21T21:23:40.866Z,7.92
2022-10-21T21:26:10.750Z,7.91
2022-10-21T21:28:39.259Z,7.88
2022-10-21T21:31:10.527Z,7.88
2022-10-21T21:33:38.116Z,7.90
2022-10-21T21:36:06.907Z,7.90
2022-10-21T21:38:35.995Z,7.91
2022-10-21T21:41:06.686Z,7.89
2022-10-21T21:43:37.076Z,7.89
2022-10-21T21:46:04.654Z,7.90
2022-10-21T21:48:33.428Z,7.91
2022-10-21T21:51:05.514Z,7.93
2022-10-21T21:53:33.049Z,7.93
2022-10-21T21:56:03.645Z,7.94
2022-10-21T21:58:31.644Z,7.93
2022-10-21T22:00:58.802Z,7.95
2022-10-21T22:03:26.227Z,7.95
2022-10-21T22:05:53.240Z,7.95
2022-10-21T22:08:20.649Z,7.95
2022-10-21T22:10:47.826Z,7.96
2022-10-21T22:13:14.837Z,7.99
2022-10-21T22:15:48.150Z,8.01
2022-10-21T22:18:16.009Z,8.02
2022-10-21T22:20:43.122Z,8.02
2022-10-21T22:23:10.233Z,8.03
2022-10-21T22:25:37.484Z,8.04
2022-10-21T22:28:04.830Z,8.04
2022-10-21T22:30:32.018Z,8.06
2022-10-21T22:32:59.015Z,8.06
2022-10-21T22:35:27.300Z,8.07
2022-10-21T22:37:54.438Z,8.10
2022-10-21T22:40:22.092Z,8.10
2022-10-21T22:42:49.243Z,8.09
2022-10-21T22:45:16.504Z,8.07
2022-10-21T22:47:43.541Z,8.07
2022-10-21T22:50:11.661Z,8.07
2022-10-21T22:52:42.459Z,8.06
2022-10-21T22:55:11.423Z,8.05
2022-10-21T22:57:38.593Z,8.04
2022-10-21T23:00:07.326Z,8.03
2022-10-21T23:02:34.364Z,8.01
2022-10-21T23:05:01.414Z,8.00
2022-10-21T23:07:28.556Z,7.99
2022-10-21T23:09:55.568Z,7.99
2022-10-21T23:12:22.723Z,8.00
2022-10-21T23:14:49.853Z,8.02
2022-10-21T23:17:16.843Z,8.02
2022-10-21T23:19:43.914Z,8.01
2022-10-21T23:22:11.634Z,8.03
2022-10-21T23:24:38.915Z,8.03
2022-10-21T23:27:06.678Z,8.03
2022-10-21T23:29:33.937Z,8.06
2022-10-21T23:32:00.887Z,8.10
2022-10-21T23:34:28.003Z,8.14
2022-10-21T23:36:55.148Z,8.16
2022-10-21T23:39:22.590Z,8.16
2022-10-21T23:41:49.759Z,8.15
2022-10-21T23:44:16.823Z,8.15
2022-10-21T23:46:44.026Z,8.16
2022-10-21T23:49:11.149Z,8.19
2022-10-21T23:51:38.418Z,8.21
2022-10-21T23:54:05.916Z,8.22
2022-10-21T23:56:33.578Z,8.24
2022-10-21T23:59:01.809Z,8.27
